sensor_id;sensor_type;location;lat;lon;timestamp;P1;durP1;ratioP1;P2;durP2;ratioP2
14092;SDS011;7123;49.468;10.992;2022-09-24T00:01:31;6.63;;;5.60;;
14092;SDS011;7123;49.468;10.992;2022-09-24T00:04:01;7.77;;;5.57;;
14092;SDS011;7123;49.468;10.992;2022-09-24T00:06:33;6.30;;;5.70;;
14092;SDS011;7123;49.468;10.992;2022-09-24T00:09:01;8.83;;;5.23;;
14092;SDS011;7123;49.468;10.992;2022-09-24T00:11:28;6.60;;;6.00;;
14092;SDS011;7123;49.468;10.992;2022-09-24T00:13:56;7.00;;;5.80;;
14092;SDS011;7123;49.468;10.992;2022-09-24T00:16:24;6.57;;;5.97;;
14092;SDS011;7123;49.468;10.992;2022-09-24T00:18:54;6.57;;;5.43;;
14092;SDS011;7123;49.468;10.992;2022-09-24T00:21:25;6.87;;;5.83;;
14092;SDS011;7123;49.468;10.992;2022-09-24T00:23:55;12.97;;;5.80;;
14092;SDS011;7123;49.468;10.992;2022-09-24T00:26:26;6.37;;;5.20;;
14092;SDS011;7123;49.468;10.992;2022-09-24T00:29:13;10.23;;;6.07;;
14092;SDS011;7123;49.468;10.992;2022-09-24T00:31:42;6.07;;;5.53;;
14092;SDS011;7123;49.468;10.992;2022-09-24T00:34:09;7.30;;;5.33;;
14092;SDS011;7123;49.468;10.992;2022-09-24T00:36:36;6.33;;;5.10;;
14092;SDS011;7123;49.468;10.992;2022-09-24T00:39:03;11.93;;;5.77;;
14092;SDS011;7123;49.468;10.992;2022-09-24T00:41:31;6.13;;;5.43;;
14092;SDS011;7123;49.468;10.992;2022-09-24T00:44:00;6.00;;;5.13;;
14092;SDS011;7123;49.468;10.992;2022-09-24T00:46:59;7.93;;;5.50;;
14092;SDS011;7123;49.468;10.992;2022-09-24T00:49:26;5.23;;;4.83;;
14092;SDS011;7123;49.468;10.992;2022-09-24T00:51:53;8.40;;;5.30;;
14092;SDS011;7123;49.468;10.992;2022-09-24T00:54:24;5.90;;;5.40;;
14092;SDS011;7123;49.468;10.992;2022-09-24T00:56:54;7.27;;;5.07;;
14092;SDS011;7123;49.468;10.992;2022-09-24T00:59:22;7.80;;;5.43;;
14092;SDS011;7123;49.468;10.992;2022-09-24T01:01:50;7.00;;;5.53;;
14092;SDS011;7123;49.468;10.992;2022-09-24T01:04:19;7.40;;;5.43;;
14092;SDS011;7123;49.468;10.992;2022-09-24T01:06:49;6.07;;;5.40;;
14092;SDS011;7123;49.468;10.992;2022-09-24T01:09:17;11.63;;;5.20;;
14092;SDS011;7123;49.468;10.992;2022-09-24T01:25:41;11.93;;;5.40;;
14092;SDS011;7123;49.468;10.992;2022-09-24T01:28:53;5.40;;;4.90;;
14092;SDS011;7123;49.468;10.992;2022-09-24T01:31:37;7.23;;;4.53;;
14092;SDS011;7123;49.468;10.992;2022-09-24T01:34:12;8.37;;;5.40;;
14092;SDS011;7123;49.468;10.992;2022-09-24T01:36:44;6.70;;;4.70;;
14092;SDS011;7123;49.468;10.992;2022-09-24T01:39:13;5.43;;;4.93;;
14092;SDS011;7123;49.468;10.992;2022-09-24T01:41:39;5.80;;;5.30;;
14092;SDS011;7123;49.468;10.992;2022-09-24T01:44:09;7.37;;;4.80;;
14092;SDS011;7123;49.468;10.992;2022-09-24T01:46:37;6.13;;;5.07;;
14092;SDS011;7123;49.468;10.992;2022-09-24T01:49:06;5.70;;;5.03;;
14092;SDS011;7123;49.468;10.992;2022-09-24T01:51:36;5.23;;;4.83;;
14092;SDS011;7123;49.468;10.992;2022-09-24T01:54:17;6.00;;;4.40;;
14092;SDS011;7123;49.468;10.992;2022-09-24T01:56:49;6.90;;;4.80;;
14092;SDS011;7123;49.468;10.992;2022-09-24T01:59:30;6.17;;;5.03;;
14092;SDS011;7123;49.468;10.992;2022-09-24T02:02:04;5.33;;;4.83;;
14092;SDS011;7123;49.468;10.992;2022-09-24T02:04:37;5.40;;;4.90;;
14092;SDS011;7123;49.468;10.992;2022-09-24T02:07:13;5.40;;;4.90;;
14092;SDS011;7123;49.468;10.992;2022-09-24T02:09:48;5.43;;;4.87;;
14092;SDS011;7123;49.468;10.992;2022-09-24T02:12:16;5.90;;;5.10;;
14092;SDS011;7123;49.468;10.992;2022-09-24T02:14:56;6.20;;;5.27;;
14092;SDS011;7123;49.468;10.992;2022-09-24T02:17:31;5.40;;;4.90;;
14092;SDS011;7123;49.468;10.992;2022-09-24T02:20:02;5.77;;;5.23;;
14092;SDS011;7123;49.468;10.992;2022-09-24T02:22:34;6.13;;;4.80;;
14092;SDS011;7123;49.468;10.992;2022-09-24T02:25:03;5.13;;;4.63;;
14092;SDS011;7123;49.468;10.992;2022-09-24T02:27:31;7.97;;;5.07;;
14092;SDS011;7123;49.468;10.992;2022-09-24T02:29:59;5.63;;;5.10;;
14092;SDS011;7123;49.468;10.992;2022-09-24T02:32:27;5.73;;;5.20;;
14092;SDS011;7123;49.468;10.992;2022-09-24T02:35:00;5.17;;;4.77;;
14092;SDS011;7123;49.468;10.992;2022-09-24T02:37:33;6.70;;;4.77;;
14092;SDS011;7123;49.468;10.992;2022-09-24T02:40:05;6.60;;;4.87;;
14092;SDS011;7123;49.468;10.992;2022-09-24T02:42:34;7.27;;;5.43;;
14092;SDS011;7123;49.468;10.992;2022-09-24T02:45:02;5.80;;;5.17;;
14092;SDS011;7123;49.468;10.992;2022-09-24T02:47:30;5.20;;;4.80;;
14092;SDS011;7123;49.468;10.992;2022-09-24T02:49:57;5.67;;;5.17;;
14092;SDS011;7123;49.468;10.992;2022-09-24T02:52:24;5.30;;;4.87;;
14092;SDS011;7123;49.468;10.992;2022-09-24T02:54:50;5.37;;;4.87;;
14092;SDS011;7123;49.468;10.992;2022-09-24T02:57:17;5.87;;;4.90;;
14092;SDS011;7123;49.468;10.992;2022-09-24T02:59:45;8.00;;;4.87;;
14092;SDS011;7123;49.468;10.992;2022-09-24T03:02:12;7.87;;;5.40;;
14092;SDS011;7123;49.468;10.992;2022-09-24T03:04:40;5.50;;;5.00;;
14092;SDS011;7123;49.468;10.992;2022-09-24T03:07:07;9.47;;;4.70;;
14092;SDS011;7123;49.468;10.992;2022-09-24T03:09:35;6.70;;;5.23;;
14092;SDS011;7123;49.468;10.992;2022-09-24T03:12:01;7.53;;;5.00;;
14092;SDS011;7123;49.468;10.992;2022-09-24T03:14:29;6.40;;;5.17;;
14092;SDS011;7123;49.468;10.992;2022-09-24T03:16:55;5.60;;;5.10;;
14092;SDS011;7123;49.468;10.992;2022-09-24T03:19:22;7.47;;;5.13;;
14092;SDS011;7123;49.468;10.992;2022-09-24T03:21:48;5.60;;;5.10;;
14092;SDS011;7123;49.468;10.992;2022-09-24T03:24:15;5.77;;;5.30;;
14092;SDS011;7123;49.468;10.992;2022-09-24T03:26:41;5.70;;;5.20;;
14092;SDS011;7123;49.468;10.992;2022-09-24T03:29:08;5.90;;;5.13;;
14092;SDS011;7123;49.468;10.992;2022-09-24T03:31:35;7.03;;;5.37;;
14092;SDS011;7123;49.468;10.992;2022-09-24T03:34:02;6.37;;;5.40;;
14092;SDS011;7123;49.468;10.992;2022-09-24T03:36:28;6.53;;;5.63;;
14092;SDS011;7123;49.468;10.992;2022-09-24T03:38:55;7.53;;;5.50;;
14092;SDS011;7123;49.468;10.992;2022-09-24T03:41:23;6.07;;;5.57;;
14092;SDS011;7123;49.468;10.992;2022-09-24T03:43:52;5.90;;;5.30;;
14092;SDS011;7123;49.468;10.992;2022-09-24T03:46:19;7.97;;;5.00;;
14092;SDS011;7123;49.468;10.992;2022-09-24T03:48:46;6.47;;;5.33;;
14092;SDS011;7123;49.468;10.992;2022-09-24T03:51:17;6.23;;;4.90;;
14092;SDS011;7123;49.468;10.992;2022-09-24T03:53:45;6.33;;;5.20;;
14092;SDS011;7123;49.468;10.992;2022-09-24T03:56:12;7.20;;;5.43;;
14092;SDS011;7123;49.468;10.992;2022-09-24T03:58:40;9.10;;;5.43;;
14092;SDS011;7123;49.468;10.992;2022-09-24T04:01:08;6.87;;;5.00;;
14092;SDS011;7123;49.468;10.992;2022-09-24T04:03:35;5.60;;;5.17;;
14092;SDS011;7123;49.468;10.992;2022-09-24T04:06:02;6.17;;;5.00;;
14092;SDS011;7123;49.468;10.992;2022-09-24T04:08:30;5.50;;;5.00;;
14092;SDS011;7123;49.468;10.992;2022-09-24T04:10:57;5.80;;;5.30;;
14092;SDS011;7123;49.468;10.992;2022-09-24T04:13:24;5.47;;;4.87;;
14092;SDS011;7123;49.468;10.992;2022-09-24T04:15:50;5.13;;;4.63;;
14092;SDS011;7123;49.468;10.992;2022-09-24T04:18:18;5.70;;;5.20;;
14092;SDS011;7123;49.468;10.992;2022-09-24T04:20:45;6.43;;;5.17;;
14092;SDS011;7123;49.468;10.992;2022-09-24T04:23:12;6.03;;;5.30;;
14092;SDS011;7123;49.468;10.992;2022-09-24T04:25:39;8.67;;;5.40;;
14092;SDS011;7123;49.468;10.992;2022-09-24T04:28:07;5.73;;;5.23;;
14092;SDS011;7123;49.468;10.992;2022-09-24T04:30:35;5.30;;;4.90;;
14092;SDS011;7123;49.468;10.992;2022-09-24T04:33:03;4.60;;;4.30;;
14092;SDS011;7123;49.468;10.992;2022-09-24T04:35:30;5.60;;;4.80;;
14092;SDS011;7123;49.468;10.992;2022-09-24T04:37:58;5.43;;;4.93;;
14092;SDS011;7123;49.468;10.992;2022-09-24T04:40:25;6.17;;;4.93;;
14092;SDS011;7123;49.468;10.992;2022-09-24T04:42:53;5.37;;;4.87;;
14092;SDS011;7123;49.468;10.992;2022-09-24T04:45:19;5.63;;;5.00;;
14092;SDS011;7123;49.468;10.992;2022-09-24T04:47:47;5.20;;;4.70;;
14092;SDS011;7123;49.468;10.992;2022-09-24T04:50:24;5.60;;;4.80;;
14092;SDS011;7123;49.468;10.992;2022-09-24T04:52:52;5.70;;;5.13;;
14092;SDS011;7123;49.468;10.992;2022-09-24T04:55:20;5.03;;;4.63;;
14092;SDS011;7123;49.468;10.992;2022-09-24T04:57:48;5.60;;;4.83;;
14092;SDS011;7123;49.468;10.992;2022-09-24T05:00:16;6.13;;;5.23;;
14092;SDS011;7123;49.468;10.992;2022-09-24T05:02:45;5.43;;;4.93;;
14092;SDS011;7123;49.468;10.992;2022-09-24T05:05:13;5.50;;;5.00;;
14092;SDS011;7123;49.468;10.992;2022-09-24T05:07:40;5.73;;;5.23;;
14092;SDS011;7123;49.468;10.992;2022-09-24T05:10:07;6.97;;;5.13;;
14092;SDS011;7123;49.468;10.992;2022-09-24T05:12:34;5.80;;;5.00;;
14092;SDS011;7123;49.468;10.992;2022-09-24T05:15:01;5.93;;;5.33;;
14092;SDS011;7123;49.468;10.992;2022-09-24T05:17:29;5.70;;;5.20;;
14092;SDS011;7123;49.468;10.992;2022-09-24T05:19:55;5.73;;;5.10;;
14092;SDS011;7123;49.468;10.992;2022-09-24T05:22:24;6.47;;;5.10;;
14092;SDS011;7123;49.468;10.992;2022-09-24T05:24:52;7.07;;;4.90;;
14092;SDS011;7123;49.468;10.992;2022-09-24T05:27:19;5.30;;;4.80;;
14092;SDS011;7123;49.468;10.992;2022-09-24T05:29:46;5.80;;;5.30;;
14092;SDS011;7123;49.468;10.992;2022-09-24T05:32:15;6.57;;;5.30;;
14092;SDS011;7123;49.468;10.992;2022-09-24T05:34:44;4.97;;;4.57;;
14092;SDS011;7123;49.468;10.992;2022-09-24T05:37:12;5.80;;;4.57;;
14092;SDS011;7123;49.468;10.992;2022-09-24T05:39:39;8.60;;;4.93;;
14092;SDS011;7123;49.468;10.992;2022-09-24T05:42:08;5.57;;;5.00;;
14092;SDS011;7123;49.468;10.992;2022-09-24T05:44:35;5.33;;;4.80;;
14092;SDS011;7123;49.468;10.992;2022-09-24T05:47:02;5.13;;;4.63;;
14092;SDS011;7123;49.468;10.992;2022-09-24T05:49:29;7.10;;;4.77;;
14092;SDS011;7123;49.468;10.992;2022-09-24T05:51:55;5.20;;;4.80;;
14092;SDS011;7123;49.468;10.992;2022-09-24T05:54:22;9.93;;;5.03;;
14092;SDS011;7123;49.468;10.992;2022-09-24T05:56:49;7.90;;;4.90;;
14092;SDS011;7123;49.468;10.992;2022-09-24T05:59:16;7.07;;;4.90;;
14092;SDS011;7123;49.468;10.992;2022-09-24T06:01:43;5.70;;;4.60;;
14092;SDS011;7123;49.468;10.992;2022-09-24T06:04:10;6.30;;;4.93;;
14092;SDS011;7123;49.468;10.992;2022-09-24T06:06:37;5.63;;;5.17;;
14092;SDS011;7123;49.468;10.992;2022-09-24T06:09:04;5.27;;;4.80;;
14092;SDS011;7123;49.468;10.992;2022-09-24T06:11:31;5.20;;;4.70;;
14092;SDS011;7123;49.468;10.992;2022-09-24T06:14:05;5.40;;;5.00;;
14092;SDS011;7123;49.468;10.992;2022-09-24T06:16:33;5.37;;;4.80;;
14092;SDS011;7123;49.468;10.992;2022-09-24T06:19:01;5.17;;;4.77;;
14092;SDS011;7123;49.468;10.992;2022-09-24T06:21:27;8.17;;;4.97;;
14092;SDS011;7123;49.468;10.992;2022-09-24T06:23:54;5.97;;;5.17;;
14092;SDS011;7123;49.468;10.992;2022-09-24T06:26:21;5.40;;;4.90;;
14092;SDS011;7123;49.468;10.992;2022-09-24T06:28:47;8.53;;;5.40;;
14092;SDS011;7123;49.468;10.992;2022-09-24T06:31:14;6.17;;;5.23;;
14092;SDS011;7123;49.468;10.992;2022-09-24T06:33:41;5.80;;;5.30;;
14092;SDS011;7123;49.468;10.992;2022-09-24T06:36:08;6.70;;;5.33;;
14092;SDS011;7123;49.468;10.992;2022-09-24T06:38:35;5.50;;;5.00;;
14092;SDS011;7123;49.468;10.992;2022-09-24T06:41:05;6.40;;;5.23;;
14092;SDS011;7123;49.468;10.992;2022-09-24T06:43:33;6.10;;;5.23;;
14092;SDS011;7123;49.468;10.992;2022-09-24T06:46:00;5.53;;;5.03;;
14092;SDS011;7123;49.468;10.992;2022-09-24T06:48:28;7.10;;;5.40;;
14092;SDS011;7123;49.468;10.992;2022-09-24T06:50:56;6.30;;;4.77;;
14092;SDS011;7123;49.468;10.992;2022-09-24T06:53:22;5.50;;;5.00;;
14092;SDS011;7123;49.468;10.992;2022-09-24T06:55:49;5.60;;;5.10;;
14092;SDS011;7123;49.468;10.992;2022-09-24T06:58:17;5.57;;;4.83;;
14092;SDS011;7123;49.468;10.992;2022-09-24T07:00:49;9.03;;;5.27;;
14092;SDS011;7123;49.468;10.992;2022-09-24T07:03:18;5.00;;;4.57;;
14092;SDS011;7123;49.468;10.992;2022-09-24T07:05:46;5.13;;;4.57;;
14092;SDS011;7123;49.468;10.992;2022-09-24T07:08:12;8.17;;;4.90;;
14092;SDS011;7123;49.468;10.992;2022-09-24T07:10:43;6.20;;;4.67;;
14092;SDS011;7123;49.468;10.992;2022-09-24T07:13:12;5.30;;;4.47;;
14092;SDS011;7123;49.468;10.992;2022-09-24T07:15:39;4.83;;;4.30;;
14092;SDS011;7123;49.468;10.992;2022-09-24T07:18:07;4.90;;;4.47;;
14092;SDS011;7123;49.468;10.992;2022-09-24T07:20:34;5.10;;;4.63;;
14092;SDS011;7123;49.468;10.992;2022-09-24T07:23:04;5.33;;;4.80;;
14092;SDS011;7123;49.468;10.992;2022-09-24T07:25:35;6.97;;;5.53;;
14092;SDS011;7123;49.468;10.992;2022-09-24T07:28:08;6.40;;;5.17;;
14092;SDS011;7123;49.468;10.992;2022-09-24T07:30:37;5.30;;;4.80;;
14092;SDS011;7123;49.468;10.992;2022-09-24T07:33:05;5.73;;;5.23;;
14092;SDS011;7123;49.468;10.992;2022-09-24T07:35:33;7.87;;;5.20;;
14092;SDS011;7123;49.468;10.992;2022-09-24T07:38:03;5.80;;;5.00;;
14092;SDS011;7123;49.468;10.992;2022-09-24T07:40:33;4.67;;;4.30;;
14092;SDS011;7123;49.468;10.992;2022-09-24T07:43:00;4.90;;;4.50;;
14092;SDS011;7123;49.468;10.992;2022-09-24T07:45:26;4.57;;;3.97;;
14092;SDS011;7123;49.468;10.992;2022-09-24T07:47:55;5.17;;;4.23;;
14092;SDS011;7123;49.468;10.992;2022-09-24T07:50:32;6.67;;;5.07;;
14092;SDS011;7123;49.468;10.992;2022-09-24T07:53:03;5.37;;;4.80;;
14092;SDS011;7123;49.468;10.992;2022-09-24T07:55:31;6.37;;;4.60;;
14092;SDS011;7123;49.468;10.992;2022-09-24T07:58:12;5.37;;;4.90;;
14092;SDS011;7123;49.468;10.992;2022-09-24T08:00:40;4.60;;;4.10;;
14092;SDS011;7123;49.468;10.992;2022-09-24T08:03:07;5.57;;;4.63;;
14092;SDS011;7123;49.468;10.992;2022-09-24T08:05:34;8.07;;;5.93;;
14092;SDS011;7123;49.468;10.992;2022-09-24T08:08:01;6.40;;;5.03;;
14092;SDS011;7123;49.468;10.992;2022-09-24T08:10:28;7.17;;;5.30;;
14092;SDS011;7123;49.468;10.992;2022-09-24T08:12:55;5.47;;;4.80;;
14092;SDS011;7123;49.468;10.992;2022-09-24T08:15:26;4.97;;;4.50;;
14092;SDS011;7123;49.468;10.992;2022-09-24T08:17:53;5.53;;;5.03;;
14092;SDS011;7123;49.468;10.992;2022-09-24T08:20:19;6.97;;;5.20;;
14092;SDS011;7123;49.468;10.992;2022-09-24T08:22:48;6.10;;;5.60;;
14092;SDS011;7123;49.468;10.992;2022-09-24T08:25:15;8.40;;;5.63;;
14092;SDS011;7123;49.468;10.992;2022-09-24T08:27:42;9.37;;;5.70;;
14092;SDS011;7123;49.468;10.992;2022-09-24T08:30:09;6.13;;;5.53;;
14092;SDS011;7123;49.468;10.992;2022-09-24T08:32:38;6.80;;;5.20;;
14092;SDS011;7123;49.468;10.992;2022-09-24T08:35:05;7.47;;;6.30;;
14092;SDS011;7123;49.468;10.992;2022-09-24T08:37:35;7.10;;;5.63;;
14092;SDS011;7123;49.468;10.992;2022-09-24T08:40:03;5.60;;;5.07;;
14092;SDS011;7123;49.468;10.992;2022-09-24T08:42:34;6.37;;;5.77;;
14092;SDS011;7123;49.468;10.992;2022-09-24T08:45:09;9.77;;;5.50;;
14092;SDS011;7123;49.468;10.992;2022-09-24T08:48:11;6.70;;;5.47;;
14092;SDS011;7123;49.468;10.992;2022-09-24T08:50:48;5.63;;;5.10;;
14092;SDS011;7123;49.468;10.992;2022-09-24T08:53:43;7.00;;;5.40;;
14092;SDS011;7123;49.468;10.992;2022-09-24T08:56:32;7.13;;;5.80;;
14092;SDS011;7123;49.468;10.992;2022-09-24T08:59:02;6.73;;;6.13;;
14092;SDS011;7123;49.468;10.992;2022-09-24T09:01:44;6.30;;;5.70;;
14092;SDS011;7123;49.468;10.992;2022-09-24T09:07:17;7.27;;;5.50;;
14092;SDS011;7123;49.468;10.992;2022-09-24T09:10:03;6.80;;;6.20;;
14092;SDS011;7123;49.468;10.992;2022-09-24T09:12:47;6.63;;;6.03;;
14092;SDS011;7123;49.468;10.992;2022-09-24T09:15:28;7.00;;;5.40;;
14092;SDS011;7123;49.468;10.992;2022-09-24T09:18:03;6.03;;;5.47;;
14092;SDS011;7123;49.468;10.992;2022-09-24T09:20:39;6.73;;;5.87;;
14092;SDS011;7123;49.468;10.992;2022-09-24T09:23:12;7.70;;;5.90;;
14092;SDS011;7123;49.468;10.992;2022-09-24T09:25:40;6.97;;;6.23;;
14092;SDS011;7123;49.468;10.992;2022-09-24T09:28:13;12.33;;;7.80;;
14092;SDS011;7123;49.468;10.992;2022-09-24T09:30:45;10.07;;;8.10;;
14092;SDS011;7123;49.468;10.992;2022-09-24T09:33:23;9.67;;;8.37;;
14092;SDS011;7123;49.468;10.992;2022-09-24T09:38:53;8.77;;;7.37;;
14092;SDS011;7123;49.468;10.992;2022-09-24T09:42:30;6.33;;;5.73;;
14092;SDS011;7123;49.468;10.992;2022-09-24T09:44:41;9.53;;;6.30;;
14092;SDS011;7123;49.468;10.992;2022-09-24T09:47:18;7.17;;;6.47;;
14092;SDS011;7123;49.468;10.992;2022-09-24T09:50:09;12.10;;;7.33;;
14092;SDS011;7123;49.468;10.992;2022-09-24T09:52:53;8.17;;;7.43;;
14092;SDS011;7123;49.468;10.992;2022-09-24T09:55:22;10.13;;;7.50;;
14092;SDS011;7123;49.468;10.992;2022-09-24T09:57:51;10.27;;;8.23;;
14092;SDS011;7123;49.468;10.992;2022-09-24T10:00:25;8.77;;;7.10;;
14092;SDS011;7123;49.468;10.992;2022-09-24T10:02:59;8.07;;;6.63;;
14092;SDS011;7123;49.468;10.992;2022-09-24T10:05:26;9.73;;;7.17;;
14092;SDS011;7123;49.468;10.992;2022-09-24T10:07:57;10.07;;;6.90;;
14092;SDS011;7123;49.468;10.992;2022-09-24T10:10:27;7.30;;;6.60;;
14092;SDS011;7123;49.468;10.992;2022-09-24T10:13:07;8.63;;;6.67;;
14092;SDS011;7123;49.468;10.992;2022-09-24T10:15:47;8.03;;;6.87;;
14092;SDS011;7123;49.468;10.992;2022-09-24T10:18:17;7.93;;;6.63;;
14092;SDS011;7123;49.468;10.992;2022-09-24T10:20:53;9.30;;;7.80;;
14092;SDS011;7123;49.468;10.992;2022-09-24T10:23:23;9.30;;;8.40;;
14092;SDS011;7123;49.468;10.992;2022-09-24T10:25:59;10.37;;;9.30;;
14092;SDS011;7123;49.468;10.992;2022-09-24T10:28:27;9.67;;;8.63;;
14092;SDS011;7123;49.468;10.992;2022-09-24T10:31:15;12.03;;;8.70;;
14092;SDS011;7123;49.468;10.992;2022-09-24T10:33:47;10.47;;;8.53;;
14092;SDS011;7123;49.468;10.992;2022-09-24T10:36:19;9.90;;;6.57;;
14092;SDS011;7123;49.468;10.992;2022-09-24T10:41:52;10.00;;;8.67;;
14092;SDS011;7123;49.468;10.992;2022-09-24T10:51:09;8.40;;;6.53;;
14092;SDS011;7123;49.468;10.992;2022-09-24T10:56:43;7.53;;;6.70;;
14092;SDS011;7123;49.468;10.992;2022-09-24T11:04:49;10.30;;;7.97;;
14092;SDS011;7123;49.468;10.992;2022-09-24T11:07:25;7.13;;;5.90;;
14092;SDS011;7123;49.468;10.992;2022-09-24T11:24:26;8.93;;;7.33;;
14092;SDS011;7123;49.468;10.992;2022-09-24T11:27:04;7.77;;;7.00;;
14092;SDS011;7123;49.468;10.992;2022-09-24T11:35:46;9.03;;;7.20;;
14092;SDS011;7123;49.468;10.992;2022-09-24T11:41:37;12.23;;;8.77;;
14092;SDS011;7123;49.468;10.992;2022-09-24T11:44:33;10.23;;;8.47;;
14092;SDS011;7123;49.468;10.992;2022-09-24T11:47:27;9.57;;;6.80;;
14092;SDS011;7123;49.468;10.992;2022-09-24T11:55:58;13.73;;;8.70;;
14092;SDS011;7123;49.468;10.992;2022-09-24T11:58:39;14.43;;;10.03;;
14092;SDS011;7123;49.468;10.992;2022-09-24T12:01:14;11.17;;;9.43;;
14092;SDS011;7123;49.468;10.992;2022-09-24T12:03:54;11.20;;;8.73;;
14092;SDS011;7123;49.468;10.992;2022-09-24T12:06:26;8.57;;;7.77;;
14092;SDS011;7123;49.468;10.992;2022-09-24T12:09:08;10.57;;;7.20;;
14092;SDS011;7123;49.468;10.992;2022-09-24T12:11:47;8.53;;;7.63;;
14092;SDS011;7123;49.468;10.992;2022-09-24T12:14:23;10.87;;;8.50;;
14092;SDS011;7123;49.468;10.992;2022-09-24T12:17:02;7.73;;;6.97;;
14092;SDS011;7123;49.468;10.992;2022-09-24T12:19:33;10.67;;;7.67;;
14092;SDS011;7123;49.468;10.992;2022-09-24T12:22:07;8.60;;;7.30;;
14092;SDS011;7123;49.468;10.992;2022-09-24T12:24:37;8.23;;;7.37;;
14092;SDS011;7123;49.468;10.992;2022-09-24T12:27:19;11.03;;;6.97;;
14092;SDS011;7123;49.468;10.992;2022-09-24T12:46:42;9.63;;;8.57;;
14092;SDS011;7123;49.468;10.992;2022-09-24T12:51:51;7.37;;;6.33;;
14092;SDS011;7123;49.468;10.992;2022-09-24T12:54:28;8.87;;;6.73;;
14092;SDS011;7123;49.468;10.992;2022-09-24T12:57:03;11.57;;;8.47;;
14092;SDS011;7123;49.468;10.992;2022-09-24T13:02:54;8.90;;;7.67;;
14092;SDS011;7123;49.468;10.992;2022-09-24T13:08:21;10.93;;;7.73;;
14092;SDS011;7123;49.468;10.992;2022-09-24T13:10:53;9.43;;;8.20;;
14092;SDS011;7123;49.468;10.992;2022-09-24T13:13:22;6.57;;;5.97;;
14092;SDS011;7123;49.468;10.992;2022-09-24T13:18:50;6.90;;;5.30;;
14092;SDS011;7123;49.468;10.992;2022-09-24T13:21:20;7.60;;;6.77;;
14092;SDS011;7123;49.468;10.992;2022-09-24T13:23:50;8.03;;;7.27;;
14092;SDS011;7123;49.468;10.992;2022-09-24T13:28:54;7.73;;;6.57;;
14092;SDS011;7123;49.468;10.992;2022-09-24T13:34:00;7.83;;;6.77;;
14092;SDS011;7123;49.468;10.992;2022-09-24T13:36:36;9.50;;;8.00;;
14092;SDS011;7123;49.468;10.992;2022-09-24T13:39:10;10.20;;;8.27;;
14092;SDS011;7123;49.468;10.992;2022-09-24T13:41:58;7.43;;;6.73;;
14092;SDS011;7123;49.468;10.992;2022-09-24T13:47:04;7.77;;;6.70;;
14092;SDS011;7123;49.468;10.992;2022-09-24T13:49:38;7.63;;;6.83;;
14092;SDS011;7123;49.468;10.992;2022-09-24T13:52:13;7.63;;;6.93;;
14092;SDS011;7123;49.468;10.992;2022-09-24T13:55:05;7.00;;;6.03;;
14092;SDS011;7123;49.468;10.992;2022-09-24T13:57:45;7.53;;;6.63;;
14092;SDS011;7123;49.468;10.992;2022-09-24T14:00:15;11.53;;;7.23;;
14092;SDS011;7123;49.468;10.992;2022-09-24T14:05:51;5.70;;;4.93;;
14092;SDS011;7123;49.468;10.992;2022-09-24T14:08:21;10.13;;;6.47;;
14092;SDS011;7123;49.468;10.992;2022-09-24T14:10:50;8.47;;;6.73;;
14092;SDS011;7123;49.468;10.992;2022-09-24T14:13:18;8.67;;;6.60;;
14092;SDS011;7123;49.468;10.992;2022-09-24T14:18:18;10.50;;;6.63;;
14092;SDS011;7123;49.468;10.992;2022-09-24T14:20:46;8.97;;;7.17;;
14092;SDS011;7123;49.468;10.992;2022-09-24T14:23:18;9.87;;;6.87;;
14092;SDS011;7123;49.468;10.992;2022-09-24T14:25:47;11.30;;;7.03;;
14092;SDS011;7123;49.468;10.992;2022-09-24T14:28:16;8.20;;;7.40;;
14092;SDS011;7123;49.468;10.992;2022-09-24T14:30:48;8.57;;;6.97;;
14092;SDS011;7123;49.468;10.992;2022-09-24T14:33:24;9.97;;;7.50;;
14092;SDS011;7123;49.468;10.992;2022-09-24T14:35:56;7.63;;;6.83;;
14092;SDS011;7123;49.468;10.992;2022-09-24T14:38:25;10.23;;;6.80;;
14092;SDS011;7123;49.468;10.992;2022-09-24T14:43:28;10.30;;;7.80;;
14092;SDS011;7123;49.468;10.992;2022-09-24T14:46:05;10.87;;;6.77;;
14092;SDS011;7123;49.468;10.992;2022-09-24T14:48:39;8.77;;;7.30;;
14092;SDS011;7123;49.468;10.992;2022-09-24T14:51:25;12.83;;;7.20;;
14092;SDS011;7123;49.468;10.992;2022-09-24T14:54:37;6.93;;;5.50;;
14092;SDS011;7123;49.468;10.992;2022-09-24T14:56:53;6.73;;;6.13;;
14092;SDS011;7123;49.468;10.992;2022-09-24T14:59:27;7.47;;;6.50;;
14092;SDS011;7123;49.468;10.992;2022-09-24T15:02:02;13.20;;;7.47;;
14092;SDS011;7123;49.468;10.992;2022-09-24T15:04:36;8.33;;;6.93;;
14092;SDS011;7123;49.468;10.992;2022-09-24T15:07:03;8.77;;;6.63;;
14092;SDS011;7123;49.468;10.992;2022-09-24T15:09:30;7.30;;;6.60;;
14092;SDS011;7123;49.468;10.992;2022-09-24T15:12:06;9.97;;;6.57;;
14092;SDS011;7123;49.468;10.992;2022-09-24T15:14:34;10.93;;;6.50;;
14092;SDS011;7123;49.468;10.992;2022-09-24T15:17:08;7.17;;;6.40;;
14092;SDS011;7123;49.468;10.992;2022-09-24T15:19:44;7.57;;;5.80;;
14092;SDS011;7123;49.468;10.992;2022-09-24T15:22:11;7.37;;;6.33;;
14092;SDS011;7123;49.468;10.992;2022-09-24T15:24:37;7.27;;;6.03;;
14092;SDS011;7123;49.468;10.992;2022-09-24T15:27:05;7.83;;;6.23;;
14092;SDS011;7123;49.468;10.992;2022-09-24T15:29:45;7.70;;;6.90;;
14092;SDS011;7123;49.468;10.992;2022-09-24T15:32:14;7.13;;;6.43;;
14092;SDS011;7123;49.468;10.992;2022-09-24T15:34:45;8.00;;;6.40;;
14092;SDS011;7123;49.468;10.992;2022-09-24T15:37:17;8.83;;;6.50;;
14092;SDS011;7123;49.468;10.992;2022-09-24T15:39:45;7.30;;;6.60;;
14092;SDS011;7123;49.468;10.992;2022-09-24T15:42:16;7.17;;;6.20;;
14092;SDS011;7123;49.468;10.992;2022-09-24T15:44:44;8.97;;;6.73;;
14092;SDS011;7123;49.468;10.992;2022-09-24T15:47:12;6.73;;;6.03;;
14092;SDS011;7123;49.468;10.992;2022-09-24T15:49:39;8.47;;;6.90;;
14092;SDS011;7123;49.468;10.992;2022-09-24T15:52:07;7.13;;;6.50;;
14092;SDS011;7123;49.468;10.992;2022-09-24T15:54:38;8.67;;;7.20;;
14092;SDS011;7123;49.468;10.992;2022-09-24T15:57:06;8.13;;;7.33;;
14092;SDS011;7123;49.468;10.992;2022-09-24T15:59:32;8.13;;;7.07;;
14092;SDS011;7123;49.468;10.992;2022-09-24T16:02:01;7.53;;;6.80;;
14092;SDS011;7123;49.468;10.992;2022-09-24T16:04:31;8.50;;;6.63;;
14092;SDS011;7123;49.468;10.992;2022-09-24T16:06:58;11.50;;;8.07;;
14092;SDS011;7123;49.468;10.992;2022-09-24T16:09:25;10.30;;;6.90;;
14092;SDS011;7123;49.468;10.992;2022-09-24T16:11:51;9.47;;;7.60;;
14092;SDS011;7123;49.468;10.992;2022-09-24T16:14:20;7.90;;;7.20;;
14092;SDS011;7123;49.468;10.992;2022-09-24T16:16:47;7.93;;;7.17;;
14092;SDS011;7123;49.468;10.992;2022-09-24T16:19:13;7.80;;;6.87;;
14092;SDS011;7123;49.468;10.992;2022-09-24T16:21:40;7.80;;;6.97;;
14092;SDS011;7123;49.468;10.992;2022-09-24T16:24:07;11.40;;;7.50;;
14092;SDS011;7123;49.468;10.992;2022-09-24T16:26:33;9.70;;;6.47;;
14092;SDS011;7123;49.468;10.992;2022-09-24T16:29:01;9.63;;;6.80;;
14092;SDS011;7123;49.468;10.992;2022-09-24T16:31:29;7.90;;;7.10;;
14092;SDS011;7123;49.468;10.992;2022-09-24T16:33:57;8.23;;;7.20;;
14092;SDS011;7123;49.468;10.992;2022-09-24T16:36:24;7.70;;;7.00;;
14092;SDS011;7123;49.468;10.992;2022-09-24T16:38:51;10.67;;;7.87;;
14092;SDS011;7123;49.468;10.992;2022-09-24T16:41:18;7.50;;;6.70;;
14092;SDS011;7123;49.468;10.992;2022-09-24T16:43:44;8.10;;;7.33;;
14092;SDS011;7123;49.468;10.992;2022-09-24T16:46:11;8.53;;;7.73;;
14092;SDS011;7123;49.468;10.992;2022-09-24T16:48:47;8.40;;;7.03;;
14092;SDS011;7123;49.468;10.992;2022-09-24T16:51:14;8.17;;;7.47;;
14092;SDS011;7123;49.468;10.992;2022-09-24T16:53:42;8.33;;;7.53;;
14092;SDS011;7123;49.468;10.992;2022-09-24T16:56:14;10.40;;;7.50;;
14092;SDS011;7123;49.468;10.992;2022-09-24T16:58:43;10.33;;;8.00;;
14092;SDS011;7123;49.468;10.992;2022-09-24T17:01:12;9.83;;;7.90;;